createdAt,value
2024-04-24T05:01:00.982Z,79.22
2024-04-24T05:02:00.935Z,80.15
2024-04-24T05:03:00.939Z,80.04
2024-04-24T05:04:00.911Z,80.87
2024-04-24T05:05:00.960Z,80.76
2024-04-24T05:06:00.854Z,81.18
2024-04-24T05:07:00.853Z,80.87
2024-04-24T05:08:00.870Z,80.11
2024-04-24T05:09:00.820Z,80.87
2024-04-24T05:10:00.821Z,80.76
2024-04-24T05:11:00.866Z,81.80
2024-04-24T05:12:05.902Z,81.45
2024-04-24T05:13:00.786Z,79.94
2024-04-24T05:14:00.830Z,80.15
2024-04-24T05:15:00.754Z,80.25
2024-04-24T05:16:00.766Z,80.76
2024-04-24T05:17:00.849Z,81.80
2024-04-24T05:18:00.841Z,80.46
2024-04-24T05:19:00.769Z,80.46
2024-04-24T05:20:00.788Z,80.62
2024-04-24T05:21:00.693Z,81.07
2024-04-24T05:22:00.677Z,81.28
2024-04-24T05:23:05.734Z,81.59
2024-04-24T05:24:00.656Z,81.66
2024-04-24T05:25:00.660Z,80.15
2024-04-24T05:26:00.745Z,80.04
2024-04-24T05:27:00.633Z,80.97
2024-04-24T05:28:00.619Z,80.87
2024-04-24T05:29:00.659Z,81.07
2024-04-24T05:30:00.589Z,80.56
2024-04-24T05:31:00.581Z,80.87
2024-04-24T05:32:00.577Z,80.76
2024-04-24T05:33:00.703Z,79.52
2024-04-24T05:34:05.599Z,78.59
2024-04-24T05:35:00.590Z,77.77
2024-04-24T05:36:00.515Z,78.91
2024-04-24T05:37:00.534Z,78.84
2024-04-24T05:38:00.623Z,79.15
2024-04-24T05:39:00.561Z,78.63
2024-04-24T05:40:00.515Z,78.01
2024-04-24T05:41:00.579Z,78.42
2024-04-24T05:42:00.446Z,79.66
2024-04-24T05:43:00.438Z,79.56
2024-04-24T05:44:00.520Z,78.53
2024-04-24T05:45:05.491Z,78.59
2024-04-24T05:46:00.411Z,78.74
2024-04-24T05:47:00.435Z,79.32
2024-04-24T05:48:00.525Z,80.15
2024-04-24T05:49:00.535Z,80.87
2024-04-24T05:50:00.494Z,80.66
2024-04-24T05:51:00.356Z,80.90
2024-04-24T05:52:01.065Z,80.39
2024-04-24T05:53:00.382Z,81.67
2024-04-24T05:54:00.331Z,81.73
2024-04-24T05:55:00.314Z,81.77
2024-04-24T05:56:05.433Z,83.01
2024-04-24T05:57:00.296Z,82.90
2024-04-24T05:58:00.295Z,83.46
2024-04-24T05:59:00.370Z,83.77
2024-04-24T06:00:00.325Z,84.87
2024-04-24T06:01:00.333Z,84.66
2024-04-24T06:02:00.259Z,83.73
2024-04-24T06:03:00.484Z,84.56
2024-04-24T06:04:00.217Z,84.45
2024-04-24T06:05:00.328Z,84.60
2024-04-24T06:06:00.198Z,83.94
2024-04-24T06:07:05.211Z,82.95
2024-04-24T06:08:00.227Z,83.67
2024-04-24T06:09:00.188Z,84.77
2024-04-24T06:10:00.363Z,85.08
2024-04-24T06:11:00.255Z,84.81
2024-04-24T06:12:00.289Z,84.66
2024-04-24T06:13:00.120Z,84.56
2024-04-24T06:14:00.117Z,84.77
2024-04-24T06:15:00.147Z,84.36
2024-04-24T06:16:00.113Z,83.84
2024-04-24T06:17:00.114Z,83.56
2024-04-24T06:18:05.155Z,84.56
2024-04-24T06:19:00.137Z,84.81
2024-04-24T06:20:00.053Z,84.91
2024-04-24T06:21:00.086Z,86.01
2024-04-24T06:22:00.008Z,86.32
2024-04-24T06:23:00.014Z,85.84
2024-04-24T06:23:59.994Z,85.28
2024-04-24T06:25:00.003Z,85.08
2024-04-24T06:25:59.987Z,85.18
2024-04-24T06:26:59.957Z,85.60
2024-04-24T06:27:59.945Z,86.32
2024-04-24T06:29:05.041Z,85.35
2024-04-24T06:29:59.927Z,85.45
2024-04-24T06:30:59.924Z,84.56
2024-04-24T06:31:59.989Z,84.56
2024-04-24T06:32:59.947Z,84.05
2024-04-24T06:33:59.874Z,83.46
2024-04-24T06:34:59.905Z,83.77
2024-04-24T06:35:59.850Z,84.39
2024-04-24T06:36:59.876Z,84.66
2024-04-24T06:37:59.858Z,85.18
2024-04-24T06:38:59.828Z,85.60
2024-04-24T06:40:04.828Z,84.77
2024-04-24T06:40:59.859Z,83.73
2024-04-24T06:41:59.797Z,84.56
2024-04-24T06:42:59.805Z,84.97
2024-04-24T06:43:59.785Z,84.05
2024-04-24T06:44:59.778Z,83.84
2024-04-24T06:45:59.754Z,83.63
2024-04-24T06:46:59.742Z,84.97
2024-04-24T06:47:59.860Z,84.87
2024-04-24T06:48:59.762Z,84.77
2024-04-24T06:49:59.779Z,85.18
2024-04-24T06:51:04.713Z,84.77
2024-04-24T06:51:59.672Z,84.77
2024-04-24T06:52:59.726Z,84.25
2024-04-24T06:53:59.653Z,84.83
2024-04-24T06:54:59.651Z,85.45
2024-04-24T06:55:59.649Z,84.48
2024-04-24T06:56:59.618Z,84.59
2024-04-24T06:58:00.879Z,83.97
2024-04-24T06:58:59.611Z,84.48
2024-04-24T06:59:59.606Z,84.28
2024-04-24T07:00:59.649Z,84.79
2024-04-24T07:02:04.653Z,85.00
2024-04-24T07:02:59.567Z,85.47
2024-04-24T07:03:59.566Z,83.86
2024-04-24T07:04:59.537Z,84.89
2024-04-24T07:05:59.531Z,84.79
2024-04-24T07:06:59.527Z,84.38
2024-04-24T07:07:59.532Z,85.21
2024-04-24T07:08:59.510Z,86.13
2024-04-24T07:09:59.477Z,86.34
2024-04-24T07:10:59.538Z,86.13
2024-04-24T07:11:59.561Z,86.24
2024-04-24T07:13:04.461Z,85.93
2024-04-24T07:13:59.486Z,85.83
2024-04-24T07:14:59.435Z,86.13
2024-04-24T07:15:59.411Z,86.24
2024-04-24T07:16:59.406Z,86.03
2024-04-24T07:17:59.462Z,85.83
2024-04-24T07:18:59.432Z,86.03
2024-04-24T07:19:59.407Z,85.83
2024-04-24T07:20:59.365Z,85.10
2024-04-24T07:21:59.347Z,86.13
2024-04-24T07:22:59.343Z,85.72
2024-04-24T07:24:04.347Z,85.35
2024-04-24T07:24:59.335Z,86.34
2024-04-24T07:25:59.376Z,85.72
2024-04-24T07:26:59.288Z,84.63
2024-04-24T07:27:59.276Z,85.55
2024-04-24T07:28:59.281Z,85.97
2024-04-24T07:29:59.292Z,85.55
2024-04-24T07:30:59.256Z,85.21
2024-04-24T07:31:59.302Z,86.13
2024-04-24T07:32:59.249Z,86.13
2024-04-24T07:33:59.310Z,86.13
2024-04-24T07:35:04.273Z,86.03
2024-04-24T07:35:59.208Z,86.61
2024-04-24T07:36:59.172Z,86.82
2024-04-24T07:37:59.301Z,86.10
2024-04-24T07:38:59.154Z,85.37
2024-04-24T07:39:59.192Z,85.47
2024-04-24T07:40:59.157Z,85.13
2024-04-24T07:41:59.116Z,84.30
2024-04-24T07:42:59.125Z,82.86
2024-04-24T07:43:59.151Z,82.96
2024-04-24T07:44:59.111Z,82.96
2024-04-24T07:46:04.149Z,83.37
2024-04-24T07:47:02.527Z,83.54
2024-04-24T07:47:59.203Z,84.47
2024-04-24T07:48:59.094Z,82.98
2024-04-24T07:49:59.090Z,81.47
2024-04-24T07:50:59.035Z,80.65
2024-04-24T07:51:59.024Z,81.43
2024-04-24T07:52:59.033Z,80.81
2024-04-24T07:53:59.028Z,80.19
2024-04-24T07:54:59.001Z,79.54
2024-04-24T07:55:59.023Z,78.30
2024-04-24T07:57:03.997Z,77.79
2024-04-24T07:57:58.976Z,77.28
2024-04-24T07:58:58.940Z,76.86
2024-04-24T07:59:58.934Z,77.72
2024-04-24T08:00:58.947Z,77.72
2024-04-24T08:01:58.975Z,78.75
2024-04-24T08:02:58.910Z,79.23
2024-04-24T08:03:58.928Z,79.33
2024-04-24T08:04:58.885Z,77.69
2024-04-24T08:05:58.850Z,78.00
2024-04-24T08:06:58.855Z,77.17
2024-04-24T08:08:03.943Z,77.79
2024-04-24T08:08:58.834Z,78.34
2024-04-24T08:09:58.806Z,77.83
2024-04-24T08:10:58.851Z,77.76
2024-04-24T08:12:00.066Z,77.97
2024-04-24T08:12:58.778Z,77.76
2024-04-24T08:13:58.813Z,78.07
2024-04-24T08:14:58.762Z,78.69
2024-04-24T08:15:58.798Z,77.55
2024-04-24T08:16:58.751Z,77.55
2024-04-24T08:17:58.777Z,77.62
2024-04-24T08:19:03.767Z,78.51
2024-04-24T08:19:58.732Z,77.55
2024-04-24T08:20:58.688Z,76.73
2024-04-24T08:21:58.717Z,76.31
2024-04-24T08:22:58.687Z,75.67
2024-04-24T08:23:58.675Z,75.32
2024-04-24T08:24:58.654Z,73.23
2024-04-24T08:25:58.668Z,73.02
2024-04-24T08:26:58.636Z,73.23
2024-04-24T08:27:58.661Z,73.13
2024-04-24T08:28:58.613Z,74.15
2024-04-24T08:30:03.643Z,74.63
2024-04-24T08:30:58.585Z,73.23
2024-04-24T08:31:58.614Z,73.74
2024-04-24T08:32:58.655Z,74.36
2024-04-24T08:33:58.649Z,72.65
2024-04-24T08:34:58.552Z,73.06
2024-04-24T08:35:58.516Z,74.33
2024-04-24T08:36:58.539Z,74.74
2024-04-24T08:37:58.523Z,75.56
2024-04-24T08:38:58.547Z,75.56
2024-04-24T08:39:58.484Z,75.46
2024-04-24T08:41:03.495Z,75.04
2024-04-24T08:42:00.090Z,75.21
2024-04-24T08:42:58.452Z,74.80
2024-04-24T08:43:58.468Z,75.21
2024-04-24T08:44:58.439Z,74.95
2024-04-24T08:45:58.410Z,74.33
2024-04-24T08:46:58.459Z,75.12
2024-04-24T08:47:58.438Z,75.01
2024-04-24T08:48:58.534Z,75.01
2024-04-24T08:49:58.373Z,75.01
2024-04-24T08:50:58.359Z,74.91
2024-04-24T08:52:03.405Z,74.46
2024-04-24T08:52:58.351Z,75.21
2024-04-24T08:53:58.351Z,75.01
2024-04-24T08:54:58.313Z,73.64
2024-04-24T08:55:58.311Z,74.36
2024-04-24T08:56:58.303Z,74.84
2024-04-24T08:57:58.271Z,73.16
2024-04-24T08:58:58.313Z,73.27
2024-04-24T08:59:58.270Z,73.06
2024-04-24T09:00:58.301Z,73.47
2024-04-24T09:01:58.271Z,73.16
2024-04-24T09:03:03.451Z,72.96
2024-04-24T09:03:58.472Z,72.96
2024-04-24T09:04:58.258Z,73.47
2024-04-24T09:05:58.187Z,73.10
2024-04-24T09:07:01.072Z,74.22
2024-04-24T09:07:58.203Z,74.57
2024-04-24T09:08:58.163Z,75.08
2024-04-24T09:09:58.162Z,75.18
2024-04-24T09:10:58.161Z,76.21
2024-04-24T09:11:58.166Z,75.18
2024-04-24T09:12:58.111Z,75.56
2024-04-24T09:14:03.186Z,76.48
2024-04-24T09:14:58.094Z,75.56
2024-04-24T09:15:58.117Z,73.30
2024-04-24T09:16:58.100Z,72.82
2024-04-24T09:17:58.184Z,71.76
2024-04-24T09:18:58.057Z,72.68
2024-04-24T09:19:58.048Z,72.20
2024-04-24T09:20:58.020Z,71.55
2024-04-24T09:21:58.009Z,71.08
2024-04-24T09:22:58.025Z,71.08
2024-04-24T09:23:57.983Z,71.59
2024-04-24T09:25:03.048Z,72.61
2024-04-24T09:25:58.003Z,72.82
2024-04-24T09:26:57.970Z,73.02
2024-04-24T09:27:57.947Z,73.44
2024-04-24T09:28:58.019Z,72.82
2024-04-24T09:29:57.940Z,72.68
2024-04-24T09:30:57.913Z,71.66
2024-04-24T09:31:57.985Z,70.90
2024-04-24T09:32:58.097Z,71.21
2024-04-24T09:33:57.932Z,71.11
2024-04-24T09:34:57.883Z,71.01
2024-04-24T09:36:02.884Z,71.42
2024-04-24T09:36:58.027Z,71.11
2024-04-24T09:37:57.865Z,71.01
2024-04-24T09:38:57.827Z,71.52
2024-04-24T09:39:57.810Z,71.28
2024-04-24T09:40:57.812Z,71.28
2024-04-24T09:41:57.791Z,71.28
2024-04-24T09:42:57.790Z,71.21
2024-04-24T09:43:57.844Z,71.62
2024-04-24T09:44:57.789Z,71.28
2024-04-24T09:45:57.740Z,70.87
2024-04-24T09:47:02.794Z,71.56
2024-04-24T09:47:57.899Z,71.04
2024-04-24T09:48:57.916Z,70.64
2024-04-24T09:49:57.737Z,70.60
2024-04-24T09:50:57.691Z,70.26
2024-04-24T09:51:57.670Z,71.11
2024-04-24T09:52:57.724Z,68.76
2024-04-24T09:53:57.678Z,70.29
2024-04-24T09:54:57.645Z,69.37
2024-04-24T09:55:57.713Z,69.37
2024-04-24T09:56:57.619Z,69.37
2024-04-24T09:58:02.640Z,68.96
2024-04-24T09:58:57.677Z,69.13
2024-04-24T09:59:57.582Z,69.34
2024-04-24T10:00:57.602Z,68.14
2024-04-24T10:01:57.585Z,67.97
2024-04-24T10:02:57.657Z,67.63
2024-04-24T10:03:57.538Z,67.22
2024-04-24T10:04:57.626Z,68.04
2024-04-24T10:05:57.906Z,68.14
2024-04-24T10:06:57.503Z,68.17
2024-04-24T10:07:57.516Z,68.48
2024-04-24T10:09:02.520Z,68.72
2024-04-24T10:09:57.466Z,69.13
2024-04-24T10:10:57.488Z,69.64
2024-04-24T10:11:57.586Z,69.06
2024-04-24T10:12:57.449Z,70.39
2024-04-24T10:13:57.487Z,71.14
2024-04-24T10:14:57.427Z,70.94
2024-04-24T10:15:57.622Z,70.04
2024-04-24T10:16:57.450Z,69.39
2024-04-24T10:17:57.482Z,71.48
2024-04-24T10:18:57.491Z,72.96
2024-04-24T10:20:11.587Z,74.63
2024-04-24T10:20:59.422Z,76.42
2024-04-24T10:21:57.368Z,78.00
2024-04-24T10:22:57.429Z,80.58
2024-04-24T10:23:57.314Z,81.44
2024-04-24T10:24:57.328Z,81.65
2024-04-24T10:25:57.380Z,80.24
2024-04-24T10:26:57.279Z,80.86
2024-04-24T10:27:57.292Z,81.58
2024-04-24T10:28:57.279Z,82.61
2024-04-24T10:29:57.251Z,83.91
2024-04-24T10:31:02.311Z,82.51
2024-04-24T10:31:57.288Z,79.31
2024-04-24T10:32:57.345Z,80.10
2024-04-24T10:33:57.249Z,80.20
2024-04-24T10:34:57.228Z,78.86
2024-04-24T10:35:57.221Z,78.97
2024-04-24T10:36:57.204Z,79.79
2024-04-24T10:37:57.228Z,80.79
2024-04-24T10:38:57.165Z,80.99
2024-04-24T10:39:57.222Z,80.23
2024-04-24T10:40:57.177Z,80.54
2024-04-24T10:42:02.146Z,78.28
2024-04-24T10:42:57.141Z,78.28
2024-04-24T10:43:57.104Z,77.66
2024-04-24T10:44:57.085Z,76.87
2024-04-24T10:45:57.089Z,79.24
2024-04-24T10:46:57.072Z,77.69
2024-04-24T10:47:57.161Z,78.89
2024-04-24T10:48:57.173Z,77.18
2024-04-24T10:49:57.143Z,78.00
2024-04-24T10:50:59.283Z,77.08
2024-04-24T10:51:57.004Z,76.90
2024-04-24T10:53:02.034Z,74.74
2024-04-24T10:53:58.568Z,75.26
2024-04-24T10:54:57.006Z,75.46
2024-04-24T10:55:56.993Z,75.77
2024-04-24T10:56:56.945Z,75.77
2024-04-24T10:57:56.965Z,74.33
2024-04-24T10:58:56.970Z,75.01
2024-04-24T10:59:56.939Z,75.70
2024-04-24T11:00:56.940Z,76.39
2024-04-24T11:01:56.947Z,76.39
2024-04-24T11:03:00.313Z,73.91
2024-04-24T11:04:01.927Z,72.75
2024-04-24T11:04:56.905Z,73.16
2024-04-24T11:05:56.909Z,71.17
2024-04-24T11:06:56.901Z,69.46
2024-04-24T11:07:56.874Z,69.53
2024-04-24T11:08:56.832Z,70.36
2024-04-24T11:09:56.807Z,68.30
2024-04-24T11:10:56.881Z,68.43
2024-04-24T11:11:56.950Z,68.67
2024-04-24T11:12:56.845Z,69.39
2024-04-24T11:13:56.800Z,68.46
2024-04-24T11:15:01.797Z,68.54
2024-04-24T11:16:02.074Z,65.35
2024-04-24T11:16:57.025Z,66.14
2024-04-24T11:17:56.932Z,65.42
2024-04-24T11:18:56.776Z,67.79
2024-04-24T11:19:56.715Z,68.51
2024-04-24T11:20:56.670Z,67.55
2024-04-24T11:21:56.745Z,67.65
2024-04-24T11:22:56.831Z,66.93
2024-04-24T11:23:56.704Z,67.14
2024-04-24T11:24:56.698Z,67.11
2024-04-24T11:26:01.654Z,68.44
2024-04-24T11:26:56.712Z,66.97
2024-04-24T11:27:56.597Z,67.46
2024-04-24T11:28:56.754Z,67.52
2024-04-24T11:29:56.575Z,67.08
2024-04-24T11:30:56.590Z,65.34
2024-04-24T11:31:56.721Z,65.45
2024-04-24T11:32:56.690Z,64.32
2024-04-24T11:33:56.648Z,64.32
2024-04-24T11:34:56.552Z,63.43
2024-04-24T11:35:56.511Z,64.41
2024-04-24T11:37:01.549Z,64.44
2024-04-24T11:37:56.496Z,67.00
2024-04-24T11:38:56.483Z,66.08
2024-04-24T11:39:56.474Z,66.22
2024-04-24T11:40:56.491Z,68.57
2024-04-24T11:41:56.486Z,69.50
2024-04-24T11:42:56.436Z,70.46
2024-04-24T11:43:56.465Z,73.19
2024-04-24T11:44:56.410Z,72.82
2024-04-24T11:45:56.391Z,71.31
2024-04-24T11:46:56.423Z,70.18
2024-04-24T11:48:01.481Z,69.60
2024-04-24T11:48:56.424Z,70.83
2024-04-24T11:49:56.491Z,71.34
2024-04-24T11:50:56.388Z,70.59
2024-04-24T11:51:56.388Z,71.11
2024-04-24T11:52:56.341Z,70.97
2024-04-24T11:53:56.318Z,70.42
2024-04-24T11:54:56.329Z,71.31
2024-04-24T11:55:56.328Z,68.34
2024-04-24T11:56:56.268Z,68.96
2024-04-24T11:57:56.297Z,69.19
2024-04-24T11:59:01.290Z,68.57
2024-04-24T11:59:56.256Z,68.85
2024-04-24T12:00:56.270Z,69.16
2024-04-24T12:01:56.320Z,68.44
2024-04-24T12:02:56.245Z,69.43
2024-04-24T12:03:56.360Z,69.43
2024-04-24T12:04:56.227Z,69.23
2024-04-24T12:05:56.168Z,69.02
2024-04-24T12:06:56.193Z,68.92
2024-04-24T12:07:56.189Z,69.10
2024-04-24T12:08:56.134Z,68.55
2024-04-24T12:10:01.272Z,68.24
2024-04-24T12:10:56.165Z,66.67
2024-04-24T12:11:56.162Z,68.21
2024-04-24T12:12:56.110Z,66.89
2024-04-24T12:13:56.155Z,66.44
2024-04-24T12:14:56.861Z,67.94
2024-04-24T12:15:56.138Z,65.60
2024-04-24T12:16:56.084Z,63.64
2024-04-24T12:17:56.109Z,61.21
2024-04-24T12:18:56.046Z,57.64
2024-04-24T12:19:56.046Z,55.93
2024-04-24T12:21:02.613Z,55.07
2024-04-24T12:21:55.996Z,53.63
2024-04-24T12:22:56.031Z,51.88
2024-04-24T12:23:56.053Z,51.14
2024-04-24T12:24:55.973Z,49.47
2024-04-24T12:25:56.019Z,51.42
2024-04-24T12:26:55.955Z,50.94
2024-04-24T12:27:55.925Z,48.49
2024-04-24T12:28:56.005Z,49.59
2024-04-24T12:29:55.929Z,51.14
2024-04-24T12:30:56.937Z,51.82
2024-04-24T12:32:00.921Z,50.48
2024-04-24T12:32:56.010Z,49.67
2024-04-24T12:33:56.197Z,49.52
2024-04-24T12:34:55.880Z,49.17
2024-04-24T12:35:55.847Z,48.57
2024-04-24T12:36:55.820Z,46.64
2024-04-24T12:37:55.826Z,46.16
2024-04-24T12:38:55.802Z,45.25
2024-04-24T12:39:55.812Z,46.56
2024-04-24T12:40:55.798Z,45.41
2024-04-24T12:41:55.800Z,47.05
2024-04-24T12:43:00.776Z,46.69
2024-04-24T12:43:55.860Z,47.82
2024-04-24T12:44:55.769Z,47.75
2024-04-24T12:45:55.729Z,46.90
2024-04-24T12:46:55.743Z,48.49
2024-04-24T12:47:55.772Z,49.73
2024-04-24T12:48:55.771Z,51.81
2024-04-24T12:49:55.748Z,53.57
2024-04-24T12:50:55.696Z,54.85
2024-04-24T12:51:55.655Z,57.52
2024-04-24T12:52:55.753Z,58.16
2024-04-24T12:53:55.651Z,59.80
2024-04-24T12:54:55.632Z,61.25
2024-04-24T12:56:00.714Z,63.56
2024-04-24T12:56:55.615Z,64.51
2024-04-24T12:57:55.609Z,65.42
2024-04-24T12:58:55.644Z,66.84
2024-04-24T12:59:55.594Z,67.93
2024-04-24T13:00:55.587Z,68.34
2024-04-24T13:01:55.577Z,69.29
2024-04-24T13:02:55.629Z,71.69
2024-04-24T13:03:55.651Z,72.61
2024-04-24T13:04:55.528Z,71.72
2024-04-24T13:05:55.547Z,71.72
2024-04-24T13:07:00.525Z,71.34
2024-04-24T13:07:55.496Z,73.30
2024-04-24T13:08:55.483Z,72.99
2024-04-24T13:09:55.468Z,71.75
2024-04-24T13:10:55.514Z,73.27
2024-04-24T13:11:55.550Z,72.75
2024-04-24T13:12:55.443Z,71.38
2024-04-24T13:13:55.455Z,69.74
2024-04-24T13:14:55.400Z,70.97
2024-04-24T13:15:55.389Z,72.78
2024-04-24T13:16:55.449Z,70.53
2024-04-24T13:18:00.620Z,70.94
2024-04-24T13:18:55.449Z,70.94
2024-04-24T13:19:55.376Z,66.93
2024-04-24T13:20:55.346Z,67.55
2024-04-24T13:21:55.321Z,67.65
2024-04-24T13:22:55.340Z,65.09
2024-04-24T13:23:55.307Z,66.25
2024-04-24T13:24:55.327Z,67.76
2024-04-24T13:25:55.345Z,67.55
2024-04-24T13:26:55.272Z,68.16
2024-04-24T13:27:55.253Z,67.86
2024-04-24T13:29:00.392Z,67.96
2024-04-24T13:29:55.235Z,68.48
2024-04-24T13:30:55.233Z,69.26
2024-04-24T13:31:55.246Z,68.65
2024-04-24T13:32:55.297Z,67.76
2024-04-24T13:33:55.343Z,68.78
2024-04-24T13:34:55.238Z,68.54
2024-04-24T13:35:55.166Z,69.33
2024-04-24T13:36:55.150Z,69.23
2024-04-24T13:37:55.156Z,70.05
2024-04-24T13:38:55.137Z,68.89
2024-04-24T13:40:00.348Z,68.79
2024-04-24T13:40:55.161Z,68.59
2024-04-24T13:41:55.104Z,68.86
2024-04-24T13:42:55.118Z,67.52
2024-04-24T13:43:55.123Z,67.43
2024-04-24T13:44:55.076Z,66.43
2024-04-24T13:45:55.054Z,66.81
2024-04-24T13:46:55.069Z,67.11
2024-04-24T13:47:55.199Z,66.91
2024-04-24T13:48:55.462Z,65.89
2024-04-24T13:49:55.098Z,65.99
2024-04-24T13:51:00.030Z,68.41
2024-04-24T13:51:54.998Z,68.21
2024-04-24T13:52:55.048Z,65.89
2024-04-24T13:53:54.978Z,67.22
2024-04-24T13:54:54.973Z,67.25
2024-04-24T13:55:54.982Z,66.84
2024-04-24T13:56:54.930Z,67.35
2024-04-24T13:57:54.941Z,68.21
2024-04-24T13:58:55.028Z,68.62
2024-04-24T13:59:54.907Z,68.51
2024-04-24T14:00:54.935Z,67.59
2024-04-24T14:01:59.919Z,68.65
2024-04-24T14:02:55.013Z,66.52
2024-04-24T14:03:55.057Z,67.24
2024-04-24T14:04:54.914Z,68.88
2024-04-24T14:05:54.850Z,69.40
2024-04-24T14:06:54.852Z,68.68
2024-04-24T14:07:54.874Z,70.84
2024-04-24T14:08:54.830Z,69.91
2024-04-24T14:09:54.808Z,70.90
2024-04-24T14:10:54.836Z,68.62
2024-04-24T14:11:54.817Z,68.82
2024-04-24T14:12:59.777Z,68.62
2024-04-24T14:13:54.763Z,69.30
2024-04-24T14:14:54.731Z,68.07
2024-04-24T14:15:54.731Z,67.86
2024-04-24T14:16:54.718Z,67.66
2024-04-24T14:17:54.727Z,66.02
2024-04-24T14:18:54.689Z,66.02
2024-04-24T14:19:54.691Z,65.71
2024-04-24T14:20:54.662Z,67.86
2024-04-24T14:21:54.666Z,65.20
2024-04-24T14:22:54.649Z,63.87
2024-04-24T14:23:59.654Z,63.56
2024-04-24T14:24:54.618Z,63.66
2024-04-24T14:25:54.616Z,63.87
2024-04-24T14:26:54.595Z,63.76
2024-04-24T14:27:54.610Z,63.43
2024-04-24T14:28:54.610Z,62.40
2024-04-24T14:29:54.581Z,60.76
2024-04-24T14:30:54.548Z,61.38
2024-04-24T14:31:54.570Z,60.46
2024-04-24T14:32:54.733Z,59.00
2024-04-24T14:33:54.521Z,59.50
2024-04-24T14:34:59.554Z,59.71
2024-04-24T14:35:54.492Z,59.50
2024-04-24T14:36:56.441Z,59.50
2024-04-24T14:37:54.480Z,60.42
2024-04-24T14:38:54.479Z,59.61
2024-04-24T14:39:54.461Z,59.92
2024-04-24T14:40:54.447Z,59.09
2024-04-24T14:41:54.442Z,58.17
2024-04-24T14:42:54.427Z,60.22
2024-04-24T14:43:54.431Z,61.79
2024-04-24T14:44:54.414Z,62.19
2024-04-24T14:45:59.401Z,63.64
2024-04-24T14:46:54.417Z,63.43
2024-04-24T14:47:54.468Z,64.45
2024-04-24T14:48:55.491Z,63.94
2024-04-24T14:49:54.375Z,64.04
2024-04-24T14:50:54.387Z,64.25
2024-04-24T14:51:54.318Z,64.28
2024-04-24T14:52:54.306Z,64.86
2024-04-24T14:53:54.309Z,64.35
2024-04-24T14:54:54.289Z,63.32
2024-04-24T14:55:54.323Z,64.35
2024-04-24T14:56:59.326Z,64.28
2024-04-24T14:57:54.248Z,63.97
2024-04-24T14:58:54.245Z,65.51
2024-04-24T14:59:54.229Z,64.89
2024-04-24T15:00:55.593Z,63.94
2024-04-24T15:01:54.285Z,63.97
2024-04-24T15:02:54.243Z,63.87
2024-04-24T15:03:54.182Z,64.07
2024-04-24T15:04:54.186Z,64.00
2024-04-24T15:05:54.179Z,63.97
2024-04-24T15:06:54.153Z,63.97
2024-04-24T15:07:59.215Z,64.48
2024-04-24T15:08:54.140Z,63.46
2024-04-24T15:09:54.147Z,65.41
2024-04-24T15:10:54.120Z,62.36
2024-04-24T15:11:54.184Z,62.29
2024-04-24T15:12:54.086Z,62.49
2024-04-24T15:13:54.088Z,62.90
2024-04-24T15:14:54.075Z,63.72
2024-04-24T15:15:54.061Z,63.21
2024-04-24T15:16:54.082Z,62.80
2024-04-24T15:17:54.234Z,63.00
2024-04-24T15:18:59.046Z,62.90
2024-04-24T15:19:54.019Z,61.57
2024-04-24T15:20:54.021Z,61.33
2024-04-24T15:21:55.552Z,61.87
2024-04-24T15:22:53.986Z,60.82
2024-04-24T15:23:53.972Z,61.05
2024-04-24T15:24:53.953Z,62.18
2024-04-24T15:25:53.945Z,61.87
2024-04-24T15:26:53.941Z,61.36
2024-04-24T15:27:53.955Z,60.95
2024-04-24T15:28:53.945Z,61.16
2024-04-24T15:29:59.018Z,59.92
2024-04-24T15:30:53.902Z,61.26
2024-04-24T15:31:53.881Z,60.23
2024-04-24T15:32:54.002Z,61.36
2024-04-24T15:33:53.895Z,61.23
2024-04-24T15:34:53.861Z,61.13
2024-04-24T15:35:53.844Z,61.54
2024-04-24T15:36:53.855Z,61.23
2024-04-24T15:37:53.810Z,61.41
2024-04-24T15:38:53.821Z,60.49
2024-04-24T15:39:53.783Z,60.89
2024-04-24T15:40:58.883Z,60.58
2024-04-24T15:41:53.818Z,59.25
2024-04-24T15:42:53.754Z,57.48
2024-04-24T15:43:53.758Z,57.31
2024-04-24T15:44:53.749Z,56.07
2024-04-24T15:45:53.719Z,56.67
2024-04-24T15:46:53.720Z,57.10
2024-04-24T15:47:53.901Z,58.44
2024-04-24T15:48:53.718Z,56.69
2024-04-24T15:49:53.689Z,57.41
2024-04-24T15:50:53.668Z,57.61
2024-04-24T15:51:58.690Z,56.79
2024-04-24T15:52:53.657Z,57.82
2024-04-24T15:53:53.635Z,58.12
2024-04-24T15:54:53.630Z,58.03
2024-04-24T15:55:53.622Z,59.56
2024-04-24T15:56:53.611Z,59.23
2024-04-24T15:57:53.595Z,60.35
2024-04-24T15:58:53.624Z,59.64
2024-04-24T15:59:53.570Z,58.20
2024-04-24T16:00:53.591Z,58.30
2024-04-24T16:01:53.543Z,59.94
2024-04-24T16:02:58.565Z,59.53
2024-04-24T16:03:53.531Z,59.05
2024-04-24T16:04:53.539Z,60.28
2024-04-24T16:05:53.510Z,60.15
2024-04-24T16:06:53.491Z,61.18
2024-04-24T16:07:53.499Z,59.56
2024-04-24T16:08:53.466Z,60.25
2024-04-24T16:09:53.452Z,61.27
2024-04-24T16:10:53.532Z,60.46
2024-04-24T16:11:53.549Z,60.66
2024-04-24T16:12:53.428Z,59.64
2024-04-24T16:13:58.431Z,59.84
2024-04-24T16:14:53.424Z,60.15
2024-04-24T16:15:53.393Z,61.27
2024-04-24T16:16:53.419Z,59.23
2024-04-24T16:17:53.486Z,58.69
2024-04-24T16:18:53.532Z,58.23
2024-04-24T16:19:53.379Z,59.05
2024-04-24T16:20:53.335Z,59.77
2024-04-24T16:21:53.321Z,59.43
2024-04-24T16:22:53.317Z,60.66
2024-04-24T16:23:53.330Z,60.25
2024-04-24T16:24:58.313Z,60.94
2024-04-24T16:25:53.294Z,60.05
2024-04-24T16:26:53.276Z,60.02
2024-04-24T16:27:53.251Z,60.42
2024-04-24T16:28:53.254Z,60.02
2024-04-24T16:29:53.266Z,59.20
2024-04-24T16:30:53.217Z,58.17
2024-04-24T16:31:53.205Z,60.02
2024-04-24T16:32:53.317Z,59.61
2024-04-24T16:33:53.240Z,58.17
2024-04-24T16:34:53.172Z,58.56
2024-04-24T16:35:58.209Z,58.35
2024-04-24T16:36:53.155Z,57.74
2024-04-24T16:37:53.155Z,59.25
2024-04-24T16:38:53.135Z,59.04
2024-04-24T16:39:53.158Z,59.76
2024-04-24T16:40:53.142Z,59.96
2024-04-24T16:41:53.102Z,59.76
2024-04-24T16:42:53.096Z,58.02
2024-04-24T16:43:53.538Z,57.89
2024-04-24T16:44:53.073Z,56.97
2024-04-24T16:45:53.063Z,57.89
2024-04-24T16:46:58.156Z,57.79
2024-04-24T16:47:53.240Z,58.09
2024-04-24T16:48:53.118Z,57.28
2024-04-24T16:49:53.004Z,57.38
2024-04-24T16:50:53.009Z,57.38
2024-04-24T16:51:52.983Z,57.51
2024-04-24T16:52:52.984Z,57.51
2024-04-24T16:53:52.966Z,58.22
2024-04-24T16:54:52.953Z,56.69
2024-04-24T16:55:52.975Z,55.66
2024-04-24T16:56:52.944Z,57.30
2024-04-24T16:57:57.934Z,57.40
2024-04-24T16:58:52.905Z,56.71
2024-04-24T16:59:52.925Z,57.53
2024-04-24T17:00:52.964Z,57.84
2024-04-24T17:01:52.886Z,57.53
2024-04-24T17:02:52.891Z,57.84
2024-04-24T17:03:52.849Z,58.45
2024-04-24T17:04:52.842Z,58.35
2024-04-24T17:05:52.855Z,57.94
2024-04-24T17:06:52.844Z,58.04
2024-04-24T17:07:52.833Z,61.32
2024-04-24T17:08:57.814Z,61.96
2024-04-24T17:09:52.791Z,63.70
2024-04-24T17:10:52.791Z,65.14
2024-04-24T17:11:52.828Z,66.06
2024-04-24T17:12:52.773Z,67.19
2024-04-24T17:13:52.735Z,68.01
2024-04-24T17:14:52.730Z,68.45
2024-04-24T17:15:52.713Z,68.55
2024-04-24T17:16:52.731Z,69.61
2024-04-24T17:17:52.824Z,70.87
2024-04-24T17:18:52.851Z,70.46
2024-04-24T17:19:57.720Z,69.47
2024-04-24T17:20:52.680Z,68.65
2024-04-24T17:21:52.644Z,68.24
2024-04-24T17:22:52.655Z,68.75
2024-04-24T17:23:52.665Z,67.11
2024-04-24T17:24:52.614Z,67.86
2024-04-24T17:25:52.623Z,69.09
2024-04-24T17:26:52.635Z,69.12
2024-04-24T17:27:52.621Z,70.46
2024-04-24T17:28:52.575Z,71.51
2024-04-24T17:29:52.582Z,72.65
2024-04-24T17:30:57.567Z,71.00
2024-04-24T17:31:52.543Z,71.11
2024-04-24T17:32:52.602Z,71.66
2024-04-24T17:33:52.527Z,72.17
2024-04-24T17:34:52.532Z,71.96
2024-04-24T17:35:52.542Z,73.44
2024-04-24T17:36:52.535Z,73.30
2024-04-24T17:37:52.479Z,73.61
2024-04-24T17:38:52.469Z,72.89
2024-04-24T17:39:52.455Z,75.15
2024-04-24T17:40:52.435Z,76.11
2024-04-24T17:41:59.353Z,76.21
2024-04-24T17:42:52.438Z,75.18
2024-04-24T17:43:52.420Z,75.08
2024-04-24T17:44:52.402Z,73.74
2024-04-24T17:45:52.392Z,74.77
2024-04-24T17:46:52.371Z,75.18
2024-04-24T17:47:52.484Z,74.05
2024-04-24T17:48:52.425Z,74.57
2024-04-24T17:49:52.336Z,74.77
2024-04-24T17:50:52.352Z,74.87
2024-04-24T17:51:52.332Z,76.31
2024-04-24T17:52:57.324Z,76.69